Etusivu
METAR-TAF:

METAR-TAF

Lentoasemat :

Washington, Indiana, Yhdysvallat

Leveyspiiri: 38-42-02N, Pituuspiiri: 087-07-47W, korkeus merenpinnasta: 144 m

Tämänhetkinen sää

Tämä raportti tehtiin 30 minuuttia sitten, kello 16.35 UTC
Tuuli 8 kn lounaasta
Lämpötila 4°C
Kosteus 48%
Ilmanpaine 1030 hPa
Näkyvyys: 16.1 km
selkeää

METAR: KDCY 221635Z AUTO 22008KT 10SM CLR 04/M06 A3042 RMK AO2 T00421065

Aika: 12:05 (17:05 UTC)


TAF: puuttuu

Säähavainnot ja -ennusteet yli 4000 lentoasemalta (METAR- ja TAF-raportit).

Käytössä olevat sääasemat on merkitty karttaan keltaisilla ja punaisilla pisteillä.

Aseta hiiri pisteen päälle nähdäksesi sääaseman nimen.

Klikkaa sitten nähdäksesi säähavainnot ja -ennusteet.

Kartan vaihtaminen: klikkaa mustalla rastilla varustettuja vihreitä pisteitä, niin voit zoomata sisään; viivalla varustettua vihreää pistettä, niin voit zoomata ulos tai vihreitä nuolia, niin pääset viereisille kartoille.


METAR-TAF: